Time;durP1;ratioP1;P1;durP2;ratioP2;P2;SDS_P1;SDS_P2;PMS_P1;PMS_P2;Temp;Humidity;BMP_temperature;BMP_pressure;BME280_temperature;BME280_humidity;BME280_pressure;Samples;Min_cycle;Max_cycle;Signal;HPM_P1;HPM_P2
2022/06/11 00:01:28;;;;;;;3.30;3.00;;;14.30;23.70;;;;;;5013995;28;20435;-67
2022/06/11 00:03:57;;;;;;;3.53;3.23;;;14.30;23.30;;;;;;5013994;28;20469;-68
2022/06/11 00:06:23;;;;;;;3.90;3.60;;;14.20;23.60;;;;;;5014004;28;20407;-68
2022/06/11 00:08:49;;;;;;;3.60;3.30;;;14.20;23.90;;;;;;5018064;28;20497;-69
2022/06/11 00:11:15;;;;;;;5.00;2.90;;;14.10;24.10;;;;;;5022145;28;20899;-66
2022/06/11 00:13:42;;;;;;;3.83;3.30;;;14.10;24.40;;;;;;5022072;28;20423;-69
2022/06/11 00:16:10;;;;;;;4.73;3.53;;;14.00;25.10;;;;;;5022726;28;20233;-67
2022/06/11 00:18:37;;;;;;;5.30;3.20;;;13.90;25.30;;;;;;5021139;28;20457;-68
2022/06/11 00:21:04;;;;;;;3.60;2.57;;;13.80;25.20;;;;;;5022078;28;20431;-68
2022/06/11 00:23:30;;;;;;;4.10;3.10;;;13.80;25.20;;;;;;5021148;28;20462;-67
2022/06/11 00:25:56;;;;;;;4.40;2.87;;;13.70;25.10;;;;;;5022023;28;20491;-68
2022/06/11 00:28:22;;;;;;;3.43;3.13;;;13.70;25.40;;;;;;5022142;28;20211;-68
2022/06/11 00:30:48;;;;;;;3.47;3.17;;;13.60;25.80;;;;;;5020466;28;20658;-68
2022/06/11 00:33:13;;;;;;;5.57;3.10;;;13.60;25.80;;;;;;5021528;28;20477;-68
2022/06/11 00:35:40;;;;;;;3.00;2.50;;;13.60;26.10;;;;;;5022148;28;20200;-68
2022/06/11 00:38:07;;;;;;;4.20;2.60;;;13.50;26.10;;;;;;5022794;28;20187;-68
2022/06/11 00:40:36;;;;;;;2.83;2.30;;;13.50;26.00;;;;;;5022230;28;20439;-68
2022/06/11 00:43:04;;;;;;;3.93;3.00;;;13.50;25.90;;;;;;5021925;28;20466;-68
2022/06/11 00:45:50;;;;;;;3.43;3.13;;;13.50;26.00;;;;;;5022607;28;20450;-68
2022/06/11 00:48:35;;;;;;;2.40;2.20;;;13.50;25.80;;;;;;5020495;28;20583;-68
2022/06/11 00:51:02;;;;;;;2.87;2.67;;;13.50;26.10;;;;;;5020345;28;20426;-68
2022/06/11 00:53:32;;;;;;;4.90;2.90;;;13.50;26.50;;;;;;5020522;28;20574;-68
2022/06/11 00:55:58;;;;;;;4.77;4.20;;;13.40;26.50;;;;;;5019125;28;20430;-68
2022/06/11 00:58:29;;;;;;;5.47;3.50;;;13.40;26.40;;;;;;5020095;28;20421;-68
2022/06/11 01:00:59;;;;;;;4.60;4.17;;;13.30;26.80;;;;;;5019658;28;20434;-68
2022/06/11 01:03:38;;;;;;;4.00;3.60;;;13.30;26.70;;;;;;5017883;28;20669;-68
2022/06/11 01:06:12;;;;;;;4.07;3.67;;;13.30;26.60;;;;;;5016573;28;20422;-67
2022/06/11 01:08:55;;;;;;;4.03;3.60;;;13.20;26.90;;;;;;5016639;28;20416;-68
2022/06/11 01:11:24;;;;;;;4.50;2.90;;;13.20;27.00;;;;;;5018590;28;20509;-68
2022/06/11 01:14:07;;;;;;;3.33;3.03;;;13.20;26.80;;;;;;5022393;28;20455;-68
2022/06/11 01:16:42;;;;;;;3.63;3.17;;;13.20;27.00;;;;;;5022287;28;20423;-67
2022/06/11 01:19:35;;;;;;;2.87;2.53;;;13.20;27.00;;;;;;5021574;28;20413;-67
2022/06/11 01:22:31;;;;;;;4.53;4.00;;;13.20;27.20;;;;;;5020844;28;20438;-68
2022/06/11 01:25:09;;;;;;;3.70;3.10;;;13.20;27.10;;;;;;5021638;28;20503;-68
2022/06/11 01:28:02;;;;;;;3.50;2.17;;;13.20;27.10;;;;;;5021360;28;20434;-68
2022/06/11 01:30:33;;;;;;;4.10;3.03;;;13.10;27.10;;;;;;5020652;28;20446;-67
2022/06/11 01:33:15;;;;;;;3.73;2.90;;;13.10;27.30;;;;;;5020700;28;20411;-68
2022/06/11 01:35:41;;;;;;;4.27;2.80;;;13.20;27.30;;;;;;5020038;28;20784;-68
2022/06/11 01:38:24;;;;;;;7.20;3.10;;;13.10;27.20;;;;;;5020701;28;20411;-67
2022/06/11 01:41:21;;;;;;;3.40;2.90;;;13.10;27.70;;;;;;5018987;28;20679;-69
2022/06/11 01:43:48;;;;;;;3.70;2.70;;;13.00;27.90;;;;;;5018477;28;20457;-68
2022/06/11 01:46:31;;;;;;;3.17;2.80;;;13.00;28.00;;;;;;5018399;28;20539;-68
2022/06/11 01:49:38;;;;;;;4.00;3.30;;;13.00;28.30;;;;;;5019002;28;20509;-68
2022/06/11 01:52:28;;;;;;;4.90;3.60;;;12.90;28.30;;;;;;5019317;28;20469;-69
2022/06/11 01:55:19;;;;;;;3.37;3.07;;;12.80;28.70;;;;;;5021195;28;20411;-68
2022/06/11 01:58:29;;;;;;;3.73;2.93;;;12.80;28.70;;;;;;5019765;28;20840;-68
2022/06/11 02:01:26;;;;;;;2.90;2.50;;;12.80;28.70;;;;;;5020117;28;20522;-69
2022/06/11 02:04:11;;;;;;;3.93;3.10;;;12.70;28.60;;;;;;5020240;28;20462;-68
2022/06/11 02:07:04;;;;;;;2.83;2.50;;;12.70;28.60;;;;;;5019767;28;20405;-68
2022/06/11 02:10:04;;;;;;;3.90;2.73;;;12.70;28.60;;;;;;5019316;28;20430;-68
2022/06/11 02:12:35;;;;;;;4.80;2.90;;;12.60;28.50;;;;;;5019712;22;20505;-68
2022/06/11 02:15:22;;;;;;;3.73;2.13;;;12.60;28.50;;;;;;4992486;28;20403;-68
2022/06/11 02:17:53;;;;;;;3.63;2.73;;;12.70;28.60;;;;;;4992518;28;20415;-67
2022/06/11 02:20:24;;;;;;;2.83;2.50;;;12.70;28.70;;;;;;4992756;28;20791;-68
2022/06/11 02:22:57;;;;;;;5.40;2.20;;;12.70;29.00;;;;;;4971602;28;20457;-68
2022/06/11 02:25:45;;;;;;;3.60;2.53;;;12.60;29.00;;;;;;4973026;28;20578;-68
2022/06/11 02:28:15;;;;;;;4.47;2.57;;;12.60;29.20;;;;;;4972638;28;20426;-68
2022/06/11 02:30:43;;;;;;;2.80;2.30;;;12.40;29.50;;;;;;4973142;28;20418;-68
2022/06/11 02:33:14;;;;;;;5.77;2.80;;;12.40;29.70;;;;;;4972599;28;20494;-68
2022/06/11 02:35:53;;;;;;;3.90;2.83;;;12.40;29.70;;;;;;4972797;28;20472;-68
2022/06/11 02:38:21;;;;;;;5.40;3.30;;;12.40;29.40;;;;;;4972900;28;20424;-68
2022/06/11 02:40:52;;;;;;;4.40;3.13;;;12.50;29.60;;;;;;4973137;28;20973;-68
2022/06/11 02:43:19;;;;;;;3.83;2.60;;;12.50;29.90;;;;;;4972531;28;20517;-68
2022/06/11 02:45:45;;;;;;;3.40;2.43;;;12.50;29.80;;;;;;4973024;28;20447;-67
2022/06/11 02:48:12;;;;;;;2.80;2.27;;;12.40;30.00;;;;;;4975715;28;20418;-68
2022/06/11 02:50:38;;;;;;;4.37;3.70;;;12.40;30.20;;;;;;4976299;28;20414;-68
2022/06/11 02:53:08;;;;;;;5.07;3.17;;;12.40;30.00;;;;;;4976505;28;20778;-68
2022/06/11 02:55:36;;;;;;;3.70;2.77;;;12.30;30.00;;;;;;4976744;28;20408;-68
2022/06/11 02:58:03;;;;;;;3.73;2.93;;;12.20;30.50;;;;;;4975468;28;21052;-67
2022/06/11 03:00:33;;;;;;;3.10;2.43;;;12.20;30.50;;;;;;4976209;28;20485;-68
2022/06/11 03:02:59;;;;;;;4.60;3.63;;;12.10;31.00;;;;;;4975947;28;20818;-68
2022/06/11 03:05:28;;;;;;;4.80;3.17;;;12.10;31.70;;;;;;4976264;28;20419;-68
2022/06/11 03:07:55;;;;;;;4.27;2.57;;;12.20;31.40;;;;;;4975056;28;20423;-68
2022/06/11 03:10:22;;;;;;;3.97;2.73;;;12.30;31.00;;;;;;4976103;28;20456;-68
2022/06/11 03:12:48;;;;;;;4.57;3.37;;;12.30;31.10;;;;;;4975862;28;20451;-68
2022/06/11 03:15:16;;;;;;;3.50;3.10;;;12.30;30.90;;;;;;4976075;28;20435;-67
2022/06/11 03:17:43;;;;;;;3.10;2.80;;;12.30;31.00;;;;;;4975918;28;20211;-68
2022/06/11 03:20:09;;;;;;;3.40;3.10;;;12.30;31.00;;;;;;4976080;28;20465;-67
2022/06/11 03:22:35;;;;;;;4.83;3.97;;;12.30;31.20;;;;;;4975620;28;20460;-67
2022/06/11 03:25:00;;;;;;;3.57;2.53;;;12.20;31.20;;;;;;4975761;28;20501;-67
2022/06/11 03:27:26;;;;;;;3.20;2.63;;;12.20;31.10;;;;;;4975760;28;20667;-68
2022/06/11 03:29:52;;;;;;;4.27;3.17;;;12.20;31.90;;;;;;4975793;28;20646;-67
2022/06/11 03:32:18;;;;;;;3.50;2.93;;;12.30;31.60;;;;;;4975407;28;20258;-68
2022/06/11 03:34:44;;;;;;;4.10;3.17;;;12.40;31.10;;;;;;4975747;28;20173;-68
2022/06/11 03:37:10;;;;;;;3.20;2.90;;;12.50;30.70;;;;;;4975653;28;20415;-67
2022/06/11 03:39:35;;;;;;;3.47;3.00;;;12.40;30.90;;;;;;4975526;28;20711;-68
2022/06/11 03:42:01;;;;;;;3.60;2.53;;;12.30;31.40;;;;;;4975145;28;20200;-68
2022/06/11 03:44:27;;;;;;;4.13;3.47;;;12.30;31.60;;;;;;4975804;28;20208;-68
2022/06/11 03:46:52;;;;;;;5.00;3.87;;;12.30;31.80;;;;;;4975400;28;20208;-67
2022/06/11 03:49:18;;;;;;;2.60;2.10;;;12.30;31.60;;;;;;4974190;28;20194;-68
2022/06/11 03:51:45;;;;;;;3.83;2.80;;;12.40;31.30;;;;;;4975105;28;20223;-68
2022/06/11 03:54:12;;;;;;;3.30;2.83;;;12.50;30.70;;;;;;4975592;28;20415;-67
2022/06/11 03:56:39;;;;;;;5.27;3.13;;;12.50;30.60;;;;;;4975764;28;20422;-67
2022/06/11 03:59:06;;;;;;;4.57;2.70;;;12.50;30.80;;;;;;4974200;28;20416;-68
2022/06/11 04:01:33;;;;;;;4.40;2.33;;;12.50;30.90;;;;;;4974806;28;20444;-68
2022/06/11 04:04:02;;;;;;;2.63;2.10;;;12.60;30.90;;;;;;4975403;28;20454;-68
2022/06/11 04:06:34;;;;;;;3.33;2.60;;;12.70;30.20;;;;;;4975141;28;20747;-68
2022/06/11 04:09:01;;;;;;;3.00;2.63;;;12.70;30.30;;;;;;4975300;28;20783;-68
2022/06/11 04:11:28;;;;;;;5.63;2.73;;;12.80;29.90;;;;;;4974699;28;20823;-68
2022/06/11 04:13:54;;;;;;;4.93;2.80;;;12.80;29.60;;;;;;4974957;28;20421;-68
2022/06/11 04:16:37;;;;;;;3.87;3.47;;;13.00;29.30;;;;;;4975130;28;20420;-68
2022/06/11 04:19:06;;;;;;;2.97;2.67;;;13.00;29.50;;;;;;4975298;28;20781;-68
2022/06/11 04:21:34;;;;;;;3.70;3.23;;;13.00;29.60;;;;;;4977014;28;20490;-68
2022/06/11 04:24:01;;;;;;;3.37;2.50;;;13.00;29.50;;;;;;4975366;28;20944;-67
2022/06/11 04:26:31;;;;;;;3.80;2.60;;;13.10;29.10;;;;;;4974305;28;20428;-68
2022/06/11 04:28:59;;;;;;;3.10;2.80;;;13.10;28.90;;;;;;4975202;28;20448;-67
2022/06/11 04:31:25;;;;;;;5.20;3.30;;;13.20;29.00;;;;;;4974903;28;20441;-67
2022/06/11 04:33:51;;;;;;;3.30;2.40;;;13.30;29.00;;;;;;4975566;28;20421;-67
2022/06/11 04:36:20;;;;;;;2.63;2.43;;;13.40;28.30;;;;;;4975651;28;20413;-67
2022/06/11 04:38:45;;;;;;;3.10;2.80;;;13.50;28.30;;;;;;4974641;28;20940;-67
2022/06/11 04:41:12;;;;;;;4.50;3.80;;;13.60;27.80;;;;;;4974491;28;20441;-67
2022/06/11 04:43:38;;;;;;;3.70;3.40;;;13.70;27.40;;;;;;4974350;28;20707;-67
2022/06/11 04:46:04;;;;;;;3.70;2.70;;;13.80;27.30;;;;;;4974454;28;20417;-67
2022/06/11 04:48:31;;;;;;;3.17;2.73;;;14.00;27.40;;;;;;4974329;28;20424;-67
2022/06/11 04:50:56;;;;;;;5.00;3.50;;;14.10;27.70;;;;;;4974337;28;20459;-67
2022/06/11 04:53:22;;;;;;;8.33;3.73;;;15.00;27.10;;;;;;4974236;28;20906;-67
2022/06/11 04:55:48;;;;;;;4.27;3.97;;;16.50;24.70;;;;;;4974357;28;20192;-67
2022/06/11 04:58:14;;;;;;;7.10;6.70;;;18.20;22.20;;;;;;4974176;28;20412;-67
2022/06/11 05:00:39;;;;;;;9.33;8.93;;;19.70;18.40;;;;;;4974133;28;20181;-67
2022/06/11 05:03:05;;;;;;;11.00;10.50;;;21.10;15.20;;;;;;4973963;28;20981;-68
2022/06/11 05:05:31;;;;;;;11.53;11.00;;;22.40;12.90;;;;;;4974105;28;20256;-67
2022/06/11 05:07:57;;;;;;;12.97;12.37;;;23.60;11.10;;;;;;4974191;28;20173;-68
2022/06/11 05:10:25;;;;;;;14.27;12.90;;;24.70;8.60;;;;;;4973634;28;20263;-68
2022/06/11 05:12:50;;;;;;;14.83;14.13;;;25.80;7.70;;;;;;4973923;28;20432;-67
2022/06/11 05:15:16;;;;;;;14.60;14.00;;;26.70;6.10;;;;;;4974004;28;20467;-68
2022/06/11 05:17:42;;;;;;;14.60;13.80;;;27.50;5.50;;;;;;4973906;28;20188;-68
2022/06/11 05:20:09;;;;;;;14.70;14.10;;;28.40;3.50;;;;;;4973834;28;20445;-68
2022/06/11 05:22:35;;;;;;;15.67;14.80;;;29.30;2.00;;;;;;4973620;28;20200;-68
2022/06/11 05:25:01;;;;;;;15.20;14.57;;;29.80;1.90;;;;;;4973768;28;20452;-68
2022/06/11 05:27:26;;;;;;;15.03;14.43;;;30.50;1.00;;;;;;4973683;28;20409;-68
2022/06/11 05:30:20;;;;;;;15.10;14.50;;;29.10;1.00;;;;;;4973568;28;20292;-69
2022/06/11 05:32:46;;;;;;;15.80;15.20;;;29.30;1.00;;;;;;4971373;28;20208;-66
2022/06/11 05:35:16;;;;;;;15.13;14.53;;;28.50;1.00;;;;;;4973424;28;20413;-67
2022/06/11 05:37:43;;;;;;;15.33;14.70;;;27.30;1.10;;;;;;4973481;28;20543;-68
2022/06/11 05:40:10;;;;;;;16.40;15.60;;;26.10;4.70;;;;;;4973453;28;20811;-67
2022/06/11 05:42:35;;;;;;;15.70;15.00;;;27.30;2.90;;;;;;4973028;28;20441;-67
2022/06/11 05:45:01;;;;;;;16.93;16.13;;;28.30;1.10;;;;;;4973427;28;20437;-67
2022/06/11 05:47:27;;;;;;;17.43;16.70;;;28.80;1.60;;;;;;4973684;28;20180;-67
2022/06/11 05:49:58;;;;;;;16.87;15.90;;;30.00;1.00;;;;;;4973523;28;20189;-67
2022/06/11 05:52:28;;;;;;;17.13;16.40;;;31.00;1.00;;;;;;4973129;28;20460;-67
2022/06/11 05:54:56;;;;;;;16.40;15.80;;;32.00;1.00;;;;;;4973674;28;20436;-67
2022/06/11 05:57:25;;;;;;;16.93;16.07;;;32.20;1.00;;;;;;4973415;28;20495;-67
2022/06/11 05:59:56;;;;;;;17.20;16.40;;;33.00;1.00;;;;;;4973266;28;20411;-67
2022/06/11 06:02:23;;;;;;;16.50;15.80;;;33.20;1.00;;;;;;4972801;28;20789;-68
2022/06/11 06:04:49;;;;;;;16.00;15.20;;;33.70;1.00;;;;;;4973052;28;20522;-68
2022/06/11 06:07:15;;;;;;;16.60;15.90;;;34.10;1.00;;;;;;4973241;28;20926;-68
2022/06/11 06:09:40;;;;;;;17.20;16.50;;;34.40;1.00;;;;;;4973045;28;20417;-68
2022/06/11 06:12:07;;;;;;;16.03;15.43;;;34.50;1.00;;;;;;4972647;28;20308;-68
2022/06/11 06:14:33;;;;;;;15.60;15.00;;;34.40;1.00;;;;;;4971759;28;20188;-66
2022/06/11 06:16:58;;;;;;;16.80;16.10;;;34.60;1.00;;;;;;4973037;28;20782;-67
2022/06/11 06:19:24;;;;;;;16.30;15.70;;;35.30;1.00;;;;;;4972965;28;20590;-67
2022/06/11 06:21:50;;;;;;;16.10;15.50;;;35.60;1.00;;;;;;4973472;28;20192;-67
2022/06/11 06:24:15;;;;;;;15.50;14.90;;;36.10;1.00;;;;;;4976990;28;20217;-67
2022/06/11 06:26:41;;;;;;;16.00;15.40;;;36.70;1.00;;;;;;4976897;28;20185;-67
2022/06/11 06:29:07;;;;;;;15.80;15.10;;;35.30;1.00;;;;;;4976773;28;20185;-67
2022/06/11 06:31:33;;;;;;;16.50;15.70;;;35.80;1.00;;;;;;4976417;28;20205;-67
2022/06/11 06:34:00;;;;;;;15.90;15.30;;;36.70;1.00;;;;;;4976785;28;20706;-67
2022/06/11 06:36:27;;;;;;;16.43;15.80;;;37.30;1.00;;;;;;4976750;28;20447;-67
2022/06/11 06:38:53;;;;;;;16.80;16.00;;;37.80;1.00;;;;;;4976637;28;20467;-67
2022/06/11 06:41:19;;;;;;;16.37;15.67;;;38.20;1.00;;;;;;4976280;28;20448;-68
2022/06/11 06:43:45;;;;;;;16.43;15.73;;;38.70;1.00;;;;;;4976381;28;20205;-67
2022/06/11 06:46:11;;;;;;;16.97;16.27;;;38.70;1.00;;;;;;4976660;28;20427;-68
2022/06/11 06:48:37;;;;;;;16.50;15.83;;;38.70;1.00;;;;;;4976667;28;20177;-68
2022/06/11 06:51:04;;;;;;;16.23;15.43;;;38.40;1.00;;;;;;4976299;28;20839;-68
2022/06/11 06:53:30;;;;;;;17.13;16.43;;;37.30;1.00;;;;;;4976046;28;20475;-67
2022/06/11 06:55:56;;;;;;;16.93;16.23;;;36.70;1.00;;;;;;4976453;28;20417;-67
2022/06/11 06:58:21;;;;;;;17.00;16.30;;;36.20;1.00;;;;;;4976274;28;20208;-68
2022/06/11 07:00:48;;;;;;;16.50;15.90;;;34.80;1.00;;;;;;4976500;28;20542;-68
2022/06/11 07:03:14;;;;;;;17.10;16.40;;;33.80;1.00;;;;;;4976003;28;20177;-68
2022/06/11 07:05:40;;;;;;;16.70;15.90;;;;;;;;;;4976494;28;20409;-68
2022/06/11 07:08:07;;;;;;;16.37;15.77;;;31.60;1.00;;;;;;4976014;28;20413;-67
2022/06/11 07:10:33;;;;;;;15.83;15.23;;;31.90;1.00;;;;;;4975814;28;20412;-67
2022/06/11 07:13:00;;;;;;;16.60;15.80;;;30.90;1.00;;;;;;4975669;28;20452;-67
2022/06/11 07:15:27;;;;;;;15.60;14.90;;;30.20;1.00;;;;;;4975920;28;20503;-67
2022/06/11 07:18:04;;;;;;;16.07;15.37;;;30.00;1.00;;;;;;4975872;28;20431;-68
2022/06/11 07:20:32;;;;;;;16.10;15.50;;;30.80;1.00;;;;;;4975888;28;20413;-67
2022/06/11 07:23:04;;;;;;;16.70;16.00;;;32.00;1.00;;;;;;4975958;28;20424;-67
2022/06/11 07:25:30;;;;;;;15.77;15.17;;;32.90;1.00;;;;;;4975615;28;20424;-68
2022/06/11 07:28:13;;;;;;;15.03;14.43;;;33.90;1.00;;;;;;4975778;28;20555;-67
2022/06/11 07:30:41;;;;;;;15.73;15.13;;;34.40;1.00;;;;;;4975902;28;20408;-68
2022/06/11 07:33:11;;;;;;;16.60;15.80;;;35.20;1.00;;;;;;4975304;28;20832;-68
2022/06/11 07:35:38;;;;;;;15.43;14.80;;;35.60;1.00;;;;;;4975605;28;20405;-68
2022/06/11 07:38:05;;;;;;;15.40;14.80;;;35.80;1.00;;;;;;4975600;28;20417;-68
2022/06/11 07:40:31;;;;;;;15.53;14.93;;;36.30;1.00;;;;;;4976005;28;20419;-68
2022/06/11 07:42:57;;;;;;;15.80;15.20;;;35.40;1.00;;;;;;4975339;28;20420;-67
2022/06/11 07:45:22;;;;;;;15.40;14.80;;;33.60;1.00;;;;;;4975554;28;20522;-68
2022/06/11 07:47:54;;;;;;;15.00;14.50;;;34.70;1.00;;;;;;4975389;28;20184;-68
2022/06/11 07:50:22;;;;;;;16.83;16.03;;;34.60;1.00;;;;;;4975253;28;20593;-67
2022/06/11 07:52:48;;;;;;;16.13;15.43;;;34.60;1.00;;;;;;4974983;28;20413;-68
2022/06/11 07:55:14;;;;;;;15.77;15.17;;;35.30;1.00;;;;;;4975226;28;20416;-68
2022/06/11 07:57:40;;;;;;;16.20;15.50;;;35.60;1.00;;;;;;4975265;28;20417;-68
2022/06/11 08:00:09;;;;;;;15.90;15.30;;;35.80;1.00;;;;;;4975170;28;20185;-68
2022/06/11 08:02:35;;;;;;;15.50;14.90;;;34.60;1.00;;;;;;4974719;28;20296;-68
2022/06/11 08:05:00;;;;;;;16.07;15.37;;;35.30;1.00;;;;;;4975029;28;20723;-68
2022/06/11 08:07:27;;;;;;;15.40;14.80;;;35.90;1.00;;;;;;4975035;28;20412;-67
2022/06/11 08:09:53;;;;;;;15.40;14.80;;;33.50;1.00;;;;;;4975372;28;20185;-67
2022/06/11 08:12:19;;;;;;;16.17;15.47;;;33.10;1.00;;;;;;4975208;28;20547;-68
2022/06/11 08:14:44;;;;;;;15.70;15.10;;;32.60;1.00;;;;;;4974941;28;21093;-69
2022/06/11 08:17:10;;;;;;;15.63;15.03;;;33.60;1.00;;;;;;4974963;28;20188;-69
2022/06/11 08:19:36;;;;;;;14.87;14.30;;;33.80;1.00;;;;;;4974672;28;20185;-68
2022/06/11 08:22:01;;;;;;;16.10;15.30;;;34.10;1.00;;;;;;4974334;28;20681;-68
2022/06/11 08:24:27;;;;;;;14.90;14.30;;;34.30;1.00;;;;;;4974730;28;20181;-68
2022/06/11 08:26:52;;;;;;;15.00;14.40;;;34.50;1.00;;;;;;4974685;28;20185;-68
2022/06/11 08:29:18;;;;;;;15.80;15.03;;;34.70;1.00;;;;;;4974582;28;20189;-68
2022/06/11 08:31:44;;;;;;;16.37;15.57;;;34.20;1.00;;;;;;4974376;28;20213;-68
2022/06/11 08:34:10;;;;;;;16.30;15.60;;;32.30;1.00;;;;;;4975212;28;20555;-68
2022/06/11 08:36:35;;;;;;;16.33;15.40;;;31.80;1.00;;;;;;4974971;28;20246;-68
2022/06/11 08:39:01;;;;;;;15.17;14.57;;;30.90;1.00;;;;;;4974785;28;20440;-68
2022/06/11 08:41:33;;;;;;;15.03;14.43;;;31.10;1.00;;;;;;4974422;28;20697;-69
2022/06/11 08:44:02;;;;;;;15.63;15.03;;;31.40;1.00;;;;;;4974525;28;20273;-68
2022/06/11 08:46:36;;;;;;;15.47;14.87;;;31.70;1.00;;;;;;4974262;28;20503;-69
2022/06/11 08:49:04;;;;;;;14.77;14.27;;;32.00;1.00;;;;;;4974226;28;20452;-69
2022/06/11 08:51:55;;;;;;;15.17;14.60;;;31.90;1.00;;;;;;4974206;28;20436;-68
2022/06/11 08:54:25;;;;;;;15.00;14.30;;;31.80;1.00;;;;;;4974282;28;20876;-69
2022/06/11 08:57:18;;;;;;;15.70;15.10;;;31.70;1.00;;;;;;4974503;28;20405;-69
2022/06/11 09:00:09;;;;;;;15.87;15.17;;;31.30;1.00;;;;;;4975009;28;20420;-68
2022/06/11 09:02:43;;;;;;;15.00;14.47;;;28.80;1.00;;;;;;4975091;28;20482;-71
2022/06/11 09:05:40;;;;;;;15.33;14.73;;;27.30;1.00;;;;;;4975500;28;20416;-70
2022/06/11 09:08:27;;;;;;;16.07;15.40;;;27.50;1.00;;;;;;4974363;28;20425;-69
2022/06/11 09:11:17;;;;;;;15.83;15.23;;;27.10;1.00;;;;;;4974967;28;20452;-70
2022/06/11 09:14:11;;;;;;;15.83;15.23;;;26.80;1.00;;;;;;4974402;28;20449;-70
2022/06/11 09:16:59;;;;;;;15.63;14.80;;;26.40;1.00;;;;;;4974528;28;20409;-70
2022/06/11 09:19:46;;;;;;;15.20;14.60;;;26.00;1.00;;;;;;4974804;28;20592;-70
2022/06/11 09:22:39;;;;;;;14.90;14.30;;;26.10;1.00;;;;;;4974297;28;20440;-69
2022/06/11 09:25:07;;;;;;;15.60;15.00;;;26.00;1.00;;;;;;4974807;28;20421;-70
2022/06/11 09:28:14;;;;;;;14.83;14.10;;;26.00;1.00;;;;;;4974686;28;20420;-69
2022/06/11 09:30:48;;;;;;;15.20;14.60;;;26.10;1.00;;;;;;4926340;28;20428;-68
2022/06/11 09:33:21;;;;;;;15.33;14.73;;;26.10;1.00;;;;;;4974261;28;20460;-69
2022/06/11 09:36:10;;;;;;;15.60;15.00;;;26.00;1.00;;;;;;4974689;28;20818;-70
2022/06/11 09:38:49;;;;;;;14.30;13.80;;;25.80;1.00;;;;;;4974168;28;20831;-69
2022/06/11 09:41:26;;;;;;;15.57;14.87;;;25.40;1.00;;;;;;4973970;28;20425;-69
2022/06/11 09:44:15;;;;;;;13.93;13.40;;;25.30;1.00;;;;;;4973660;28;20487;-68
2022/06/11 09:46:47;;;;;;;15.07;14.33;;;24.50;1.00;;;;;;4973718;28;20433;-69
2022/06/11 09:49:34;;;;;;;15.30;14.70;;;24.70;1.00;;;;;;4973641;28;20417;-68
2022/06/11 09:52:22;;;;;;;14.63;14.03;;;24.60;1.00;;;;;;4973179;28;20459;-67
2022/06/11 09:55:21;;;;;;;15.27;14.67;;;24.80;1.00;;;;;;4973854;28;20467;-68
2022/06/11 09:57:56;;;;;;;15.23;14.60;;;25.00;1.00;;;;;;4973133;28;20482;-68
2022/06/11 10:00:29;;;;;;;16.10;15.20;;;25.10;1.00;;;;;;4973695;28;20448;-69
2022/06/11 10:03:35;;;;;;;15.80;15.00;;;25.00;1.00;;;;;;4973370;28;20432;-69
2022/06/11 10:06:17;;;;;;;14.80;14.20;;;24.60;1.00;;;;;;4973225;28;20419;-69
2022/06/11 10:08:56;;;;;;;15.10;14.40;;;24.60;1.00;;;;;;4973375;28;20412;-69
2022/06/11 10:11:30;;;;;;;14.83;14.23;;;24.70;1.00;;;;;;4974252;28;20820;-69
2022/06/11 10:14:34;;;;;;;16.13;15.33;;;24.90;1.60;;;;;;4974666;28;20452;-70
2022/06/11 10:17:18;;;;;;;14.23;13.73;;;25.10;1.70;;;;;;4973919;28;20404;-69
2022/06/11 10:20:03;;;;;;;15.50;14.90;;;25.20;1.60;;;;;;4973674;28;20405;-69
2022/06/11 10:22:42;;;;;;;14.97;14.37;;;25.20;1.10;;;;;;4973499;28;21004;-69
2022/06/11 10:25:35;;;;;;;15.37;14.57;;;25.20;1.30;;;;;;4973583;28;20427;-68
2022/06/11 10:28:18;;;;;;;14.47;13.83;;;24.80;1.10;;;;;;4953228;28;20417;-68
2022/06/11 10:30:47;;;;;;;15.00;14.40;;;24.70;1.50;;;;;;4973780;28;20503;-70
2022/06/11 10:33:37;;;;;;;14.30;13.70;;;24.80;1.50;;;;;;4973251;28;20467;-69
2022/06/11 10:36:27;;;;;;;13.97;13.47;;;24.90;1.60;;;;;;4974107;28;20930;-69
2022/06/11 10:38:59;;;;;;;13.30;12.80;;;25.10;1.70;;;;;;4974710;28;20424;-69
2022/06/11 10:41:35;;;;;;;13.43;12.93;;;25.30;1.90;;;;;;4973997;28;20448;-69
2022/06/11 10:44:07;;;;;;;13.87;13.37;;;25.50;1.90;;;;;;4974528;28;20475;-69
2022/06/11 10:46:35;;;;;;;13.80;13.30;;;25.70;1.30;;;;;;4974067;28;20439;-68
2022/06/11 10:49:01;;;;;;;13.40;12.90;;;25.80;1.50;;;;;;4974274;28;20417;-69
2022/06/11 10:51:32;;;;;;;13.80;13.30;;;25.90;1.30;;;;;;4972986;28;20794;-69
2022/06/11 10:54:04;;;;;;;13.77;13.27;;;26.00;1.00;;;;;;4974272;28;20197;-69
2022/06/11 10:56:39;;;;;;;14.27;13.67;;;26.10;1.00;;;;;;4974229;28;20424;-69
2022/06/11 10:59:22;;;;;;;14.37;13.77;;;26.10;1.00;;;;;;4974666;28;20424;-69
2022/06/11 11:01:55;;;;;;;14.03;13.53;;;26.20;1.00;;;;;;4974022;28;20435;-69
2022/06/11 11:04:48;;;;;;;14.37;13.77;;;26.30;1.00;;;;;;4973960;28;20413;-68
2022/06/11 11:07:20;;;;;;;14.20;13.50;;;26.40;1.00;;;;;;4974013;28;20487;-69
2022/06/11 11:09:46;;;;;;;14.63;14.03;;;26.50;1.20;;;;;;4977763;28;20421;-69
2022/06/11 11:12:32;;;;;;;14.60;14.00;;;26.50;1.00;;;;;;4977137;28;20462;-69
2022/06/11 11:15:16;;;;;;;15.40;14.70;;;26.50;1.00;;;;;;4977382;28;20607;-69
2022/06/11 11:17:52;;;;;;;15.10;14.50;;;26.50;1.00;;;;;;4977532;28;20413;-68
2022/06/11 11:20:42;;;;;;;13.90;13.40;;;26.50;1.00;;;;;;4977475;28;20617;-68
2022/06/11 11:23:10;;;;;;;14.90;14.30;;;26.40;1.00;;;;;;4977191;28;20496;-69
2022/06/11 11:25:51;;;;;;;14.83;14.23;;;26.50;1.00;;;;;;4977362;28;20425;-68
2022/06/11 11:28:27;;;;;;;14.40;13.90;;;26.50;1.00;;;;;;4977560;28;20417;-69
2022/06/11 11:31:08;;;;;;;13.83;13.33;;;26.50;1.00;;;;;;4977056;28;20979;-68
2022/06/11 11:33:42;;;;;;;13.90;13.20;;;26.50;1.00;;;;;;4976887;28;20625;-68
2022/06/11 11:36:20;;;;;;;13.87;13.27;;;26.60;1.00;;;;;;4977498;28;20423;-69
2022/06/11 11:39:13;;;;;;;14.70;14.20;;;26.50;1.00;;;;;;4977532;28;20424;-68
2022/06/11 11:42:07;;;;;;;14.50;13.90;;;26.30;1.00;;;;;;4976594;28;20440;-69
2022/06/11 11:44:51;;;;;;;15.07;14.43;;;25.80;1.00;;;;;;4966183;28;20440;-68
2022/06/11 11:47:26;;;;;;;14.10;13.60;;;25.90;1.00;;;;;;4977343;28;20413;-68
2022/06/11 11:50:17;;;;;;;13.90;13.40;;;26.10;1.00;;;;;;4977142;28;20789;-69
2022/06/11 11:52:52;;;;;;;14.87;14.33;;;26.30;1.00;;;;;;4968330;28;20516;-69
2022/06/11 11:55:46;;;;;;;16.50;15.60;;;26.50;1.00;;;;;;4977138;28;20417;-69
2022/06/11 11:58:17;;;;;;;14.93;14.33;;;26.60;1.00;;;;;;4974072;28;20523;-68
2022/06/11 12:00:47;;;;;;;14.53;14.03;;;26.60;1.00;;;;;;4976467;28;20791;-69
2022/06/11 12:03:22;;;;;;;15.40;14.67;;;26.70;1.00;;;;;;4976912;28;20913;-69
2022/06/11 12:05:54;;;;;;;14.87;14.27;;;26.70;1.00;;;;;;4976839;28;20416;-68
2022/06/11 12:08:29;;;;;;;14.30;13.70;;;26.70;1.00;;;;;;4976447;28;20427;-68
2022/06/11 12:11:00;;;;;;;14.13;13.60;;;26.60;1.00;;;;;;4976329;28;20827;-69
2022/06/11 12:13:45;;;;;;;13.90;13.40;;;26.40;1.00;;;;;;4976605;28;20479;-69
2022/06/11 12:16:25;;;;;;;14.30;13.80;;;26.40;1.00;;;;;;4976655;28;20786;-68
2022/06/11 12:18:56;;;;;;;14.90;14.20;;;26.20;1.00;;;;;;4976188;28;20409;-68
2022/06/11 12:21:26;;;;;;;15.07;14.47;;;26.10;1.00;;;;;;4976366;28;20428;-68
2022/06/11 12:24:24;;;;;;;14.47;13.97;;;26.30;1.00;;;;;;4975162;28;20421;-68
2022/06/11 12:26:55;;;;;;;14.73;14.13;;;26.40;1.00;;;;;;4967846;28;20499;-68
2022/06/11 12:29:35;;;;;;;13.83;13.33;;;26.50;1.00;;;;;;4976417;28;20417;-69
2022/06/11 12:32:12;;;;;;;13.57;13.07;;;26.60;1.00;;;;;;4975665;28;20444;-68
2022/06/11 12:34:38;;;;;;;13.90;13.37;;;26.70;1.00;;;;;;4975984;28;20468;-68
2022/06/11 12:37:15;;;;;;;14.40;13.80;;;26.70;1.00;;;;;;4975648;28;20424;-69
2022/06/11 12:39:43;;;;;;;14.53;14.03;;;26.80;1.00;;;;;;4976301;28;20181;-69
2022/06/11 12:42:26;;;;;;;14.80;14.20;;;27.00;1.00;;;;;;4975672;28;20500;-69
2022/06/11 12:45:06;;;;;;;15.63;14.33;;;27.00;1.00;;;;;;4976362;28;20918;-68
2022/06/11 12:47:52;;;;;;;14.70;14.00;;;26.90;1.00;;;;;;4976130;28;20479;-69
2022/06/11 12:50:58;;;;;;;15.00;14.43;;;27.10;1.00;;;;;;4975556;28;20854;-69
2022/06/11 12:53:43;;;;;;;15.40;14.70;;;27.10;1.00;;;;;;4975607;28;20464;-69
2022/06/11 12:56:28;;;;;;;14.50;13.90;;;27.10;1.00;;;;;;4975549;28;20419;-69
2022/06/11 12:59:12;;;;;;;15.10;14.40;;;26.80;1.00;;;;;;4975993;28;20780;-69
2022/06/11 13:01:43;;;;;;;14.57;13.97;;;26.90;1.00;;;;;;4975522;28;20436;-69
2022/06/11 13:04:32;;;;;;;16.07;14.87;;;26.90;1.00;;;;;;4975804;28;20424;-68
2022/06/11 13:07:03;;;;;;;14.43;13.90;;;26.70;1.00;;;;;;4975257;28;20408;-68
2022/06/11 13:09:58;;;;;;;14.90;14.10;;;26.60;1.00;;;;;;4975304;28;20883;-69
2022/06/11 13:12:26;;;;;;;14.80;14.10;;;26.30;1.00;;;;;;4974832;28;20543;-68